sensor_id;sensor_type;location;lat;lon;timestamp;temperature;humidity
13245;DHT22;6689;53.400;12.486;2022-08-02T00:00:13;16.70;99.90
13245;DHT22;6689;53.400;12.486;2022-08-02T00:02:44;16.70;62.60
13245;DHT22;6689;53.400;12.486;2022-08-02T00:05:14;16.60;1.00
13245;DHT22;6689;53.400;12.486;2022-08-02T00:07:43;16.60;32.00
13245;DHT22;6689;53.400;12.486;2022-08-02T00:10:11;16.60;81.20
13245;DHT22;6689;53.400;12.486;2022-08-02T00:12:38;16.60;1.20
13245;DHT22;6689;53.400;12.486;2022-08-02T00:15:11;16.50;71.40
13245;DHT22;6689;53.400;12.486;2022-08-02T00:17:38;16.50;19.90
13245;DHT22;6689;53.400;12.486;2022-08-02T00:20:11;16.40;72.30
13245;DHT22;6689;53.400;12.486;2022-08-02T00:22:38;16.40;6.30
13245;DHT22;6689;53.400;12.486;2022-08-02T00:25:11;16.40;40.90
13245;DHT22;6689;53.400;12.486;2022-08-02T00:27:38;16.30;29.00
13245;DHT22;6689;53.400;12.486;2022-08-02T00:30:12;16.20;11.30
13245;DHT22;6689;53.400;12.486;2022-08-02T00:32:38;16.10;38.30
13245;DHT22;6689;53.400;12.486;2022-08-02T00:35:08;16.20;58.70
13245;DHT22;6689;53.400;12.486;2022-08-02T00:37:38;16.20;4.70
13245;DHT22;6689;53.400;12.486;2022-08-02T00:40:08;16.10;21.20
13245;DHT22;6689;53.400;12.486;2022-08-02T00:42:36;16.10;71.70
13245;DHT22;6689;53.400;12.486;2022-08-02T00:45:04;16.10;3.60
13245;DHT22;6689;53.400;12.486;2022-08-02T00:47:38;16.00;36.40
13245;DHT22;6689;53.400;12.486;2022-08-02T00:50:07;16.00;40.00
13245;DHT22;6689;53.400;12.486;2022-08-02T00:52:36;16.00;45.40
13245;DHT22;6689;53.400;12.486;2022-08-02T00:55:04;16.00;39.00
13245;DHT22;6689;53.400;12.486;2022-08-02T00:57:33;15.90;93.10
13245;DHT22;6689;53.400;12.486;2022-08-02T01:00:04;15.90;48.40
13245;DHT22;6689;53.400;12.486;2022-08-02T01:02:32;15.80;42.50
13245;DHT22;6689;53.400;12.486;2022-08-02T01:05:03;15.70;42.30
13245;DHT22;6689;53.400;12.486;2022-08-02T01:07:32;15.70;39.30
13245;DHT22;6689;53.400;12.486;2022-08-02T01:09:59;15.70;48.90
13245;DHT22;6689;53.400;12.486;2022-08-02T01:12:27;15.70;99.90
13245;DHT22;6689;53.400;12.486;2022-08-02T01:14:58;15.70;99.90
13245;DHT22;6689;53.400;12.486;2022-08-02T01:17:33;15.70;85.40
13245;DHT22;6689;53.400;12.486;2022-08-02T01:20:15;15.70;15.30
13245;DHT22;6689;53.400;12.486;2022-08-02T01:23:01;15.60;25.00
13245;DHT22;6689;53.400;12.486;2022-08-02T01:25:47;15.60;7.70
13245;DHT22;6689;53.400;12.486;2022-08-02T01:28:29;15.50;65.80
13245;DHT22;6689;53.400;12.486;2022-08-02T01:31:09;15.50;69.00
13245;DHT22;6689;53.400;12.486;2022-08-02T01:33:43;15.50;47.30
13245;DHT22;6689;53.400;12.486;2022-08-02T01:36:17;15.50;29.50
13245;DHT22;6689;53.400;12.486;2022-08-02T01:38:48;15.40;36.60
13245;DHT22;6689;53.400;12.486;2022-08-02T01:41:18;15.40;17.70
13245;DHT22;6689;53.400;12.486;2022-08-02T01:43:55;15.40;36.40
13245;DHT22;6689;53.400;12.486;2022-08-02T01:46:28;15.30;20.90
13245;DHT22;6689;53.400;12.486;2022-08-02T01:48:58;15.30;53.30
13245;DHT22;6689;53.400;12.486;2022-08-02T01:51:34;15.20;43.60
13245;DHT22;6689;53.400;12.486;2022-08-02T01:54:23;15.20;71.60
13245;DHT22;6689;53.400;12.486;2022-08-02T01:56:55;15.20;33.60
13245;DHT22;6689;53.400;12.486;2022-08-02T01:59:28;15.20;35.60
13245;DHT22;6689;53.400;12.486;2022-08-02T02:01:59;15.20;44.80
13245;DHT22;6689;53.400;12.486;2022-08-02T02:04:30;15.10;42.00
13245;DHT22;6689;53.400;12.486;2022-08-02T02:07:03;15.10;51.70
13245;DHT22;6689;53.400;12.486;2022-08-02T02:09:37;15.00;85.00
13245;DHT22;6689;53.400;12.486;2022-08-02T02:12:05;15.00;82.40
13245;DHT22;6689;53.400;12.486;2022-08-02T02:14:37;15.00;62.10
13245;DHT22;6689;53.400;12.486;2022-08-02T02:17:08;15.00;53.70
13245;DHT22;6689;53.400;12.486;2022-08-02T02:19:39;15.00;55.10
13245;DHT22;6689;53.400;12.486;2022-08-02T02:22:09;15.00;48.10
13245;DHT22;6689;53.400;12.486;2022-08-02T02:24:39;15.00;99.90
13245;DHT22;6689;53.400;12.486;2022-08-02T02:27:13;14.90;92.10
13245;DHT22;6689;53.400;12.486;2022-08-02T02:29:47;14.90;75.00
13245;DHT22;6689;53.400;12.486;2022-08-02T02:32:18;14.90;62.70
13245;DHT22;6689;53.400;12.486;2022-08-02T02:34:48;14.90;71.80
13245;DHT22;6689;53.400;12.486;2022-08-02T02:37:19;14.90;53.60
13245;DHT22;6689;53.400;12.486;2022-08-02T02:39:49;14.80;64.80
13245;DHT22;6689;53.400;12.486;2022-08-02T02:42:19;14.80;65.50
13245;DHT22;6689;53.400;12.486;2022-08-02T02:44:53;14.90;76.70
13245;DHT22;6689;53.400;12.486;2022-08-02T02:47:23;14.80;61.50
13245;DHT22;6689;53.400;12.486;2022-08-02T02:49:53;14.70;78.80
13245;DHT22;6689;53.400;12.486;2022-08-02T02:52:24;14.70;81.10
13245;DHT22;6689;53.400;12.486;2022-08-02T02:54:53;14.70;99.90
13245;DHT22;6689;53.400;12.486;2022-08-02T02:57:23;14.70;99.90
13245;DHT22;6689;53.400;12.486;2022-08-02T02:59:53;14.60;99.90
13245;DHT22;6689;53.400;12.486;2022-08-02T03:02:20;14.60;99.90
13245;DHT22;6689;53.400;12.486;2022-08-02T03:04:50;14.60;99.90
13245;DHT22;6689;53.400;12.486;2022-08-02T03:07:19;14.60;99.90
13245;DHT22;6689;53.400;12.486;2022-08-02T03:09:46;14.70;99.90
13245;DHT22;6689;53.400;12.486;2022-08-02T03:12:15;14.70;99.90
13245;DHT22;6689;53.400;12.486;2022-08-02T03:14:44;14.60;99.90
13245;DHT22;6689;53.400;12.486;2022-08-02T03:17:13;14.60;64.00
13245;DHT22;6689;53.400;12.486;2022-08-02T03:19:41;14.60;99.90
13245;DHT22;6689;53.400;12.486;2022-08-02T03:22:09;14.60;99.90
13245;DHT22;6689;53.400;12.486;2022-08-02T03:24:36;14.60;99.90
13245;DHT22;6689;53.400;12.486;2022-08-02T03:27:06;14.60;99.20
13245;DHT22;6689;53.400;12.486;2022-08-02T03:29:35;14.60;99.90
13245;DHT22;6689;53.400;12.486;2022-08-02T03:32:03;14.50;99.90
13245;DHT22;6689;53.400;12.486;2022-08-02T03:34:33;14.50;99.90
13245;DHT22;6689;53.400;12.486;2022-08-02T03:37:01;14.50;99.90
13245;DHT22;6689;53.400;12.486;2022-08-02T03:39:31;14.50;99.90
13245;DHT22;6689;53.400;12.486;2022-08-02T03:42:04;14.40;99.90
13245;DHT22;6689;53.400;12.486;2022-08-02T03:44:35;14.40;99.90
13245;DHT22;6689;53.400;12.486;2022-08-02T03:47:08;14.40;99.90
13245;DHT22;6689;53.400;12.486;2022-08-02T03:49:41;14.30;99.90
13245;DHT22;6689;53.400;12.486;2022-08-02T03:52:15;14.30;99.90
13245;DHT22;6689;53.400;12.486;2022-08-02T03:54:44;14.30;99.90
13245;DHT22;6689;53.400;12.486;2022-08-02T03:57:11;14.30;99.90
13245;DHT22;6689;53.400;12.486;2022-08-02T03:59:40;14.30;99.90
13245;DHT22;6689;53.400;12.486;2022-08-02T04:02:11;14.30;99.90
13245;DHT22;6689;53.400;12.486;2022-08-02T04:04:40;14.30;99.90
13245;DHT22;6689;53.400;12.486;2022-08-02T04:07:09;14.30;99.90
13245;DHT22;6689;53.400;12.486;2022-08-02T04:09:36;14.30;99.90
13245;DHT22;6689;53.400;12.486;2022-08-02T04:12:05;14.30;99.90
13245;DHT22;6689;53.400;12.486;2022-08-02T04:14:35;14.30;99.90
13245;DHT22;6689;53.400;12.486;2022-08-02T04:17:07;14.30;99.90
13245;DHT22;6689;53.400;12.486;2022-08-02T04:19:44;14.30;99.90
13245;DHT22;6689;53.400;12.486;2022-08-02T04:22:17;14.30;99.90
13245;DHT22;6689;53.400;12.486;2022-08-02T04:24:53;14.30;99.90
13245;DHT22;6689;53.400;12.486;2022-08-02T04:27:21;14.30;99.90
13245;DHT22;6689;53.400;12.486;2022-08-02T04:29:56;14.40;99.90
13245;DHT22;6689;53.400;12.486;2022-08-02T04:32:26;14.40;99.90
13245;DHT22;6689;53.400;12.486;2022-08-02T04:34:57;14.40;99.90
13245;DHT22;6689;53.400;12.486;2022-08-02T04:37:25;14.50;99.90
13245;DHT22;6689;53.400;12.486;2022-08-02T04:39:55;14.60;99.90
13245;DHT22;6689;53.400;12.486;2022-08-02T04:42:23;14.70;99.90
13245;DHT22;6689;53.400;12.486;2022-08-02T04:44:51;14.80;99.90
13245;DHT22;6689;53.400;12.486;2022-08-02T04:47:20;14.90;99.90
13245;DHT22;6689;53.400;12.486;2022-08-02T04:49:50;15.10;99.90
13245;DHT22;6689;53.400;12.486;2022-08-02T04:52:22;15.20;99.90
13245;DHT22;6689;53.400;12.486;2022-08-02T04:54:50;15.40;99.90
13245;DHT22;6689;53.400;12.486;2022-08-02T04:57:21;15.60;99.90
13245;DHT22;6689;53.400;12.486;2022-08-02T05:00:06;15.70;99.90
13245;DHT22;6689;53.400;12.486;2022-08-02T05:02:36;15.50;99.90
13245;DHT22;6689;53.400;12.486;2022-08-02T05:05:05;15.50;99.90
13245;DHT22;6689;53.400;12.486;2022-08-02T05:07:37;15.80;99.90
13245;DHT22;6689;53.400;12.486;2022-08-02T05:10:05;16.20;99.90
13245;DHT22;6689;53.400;12.486;2022-08-02T05:12:32;16.40;99.90
13245;DHT22;6689;53.400;12.486;2022-08-02T05:15:05;16.70;99.90
13245;DHT22;6689;53.400;12.486;2022-08-02T05:17:32;16.80;99.90
13245;DHT22;6689;53.400;12.486;2022-08-02T05:20:02;16.90;99.90
13245;DHT22;6689;53.400;12.486;2022-08-02T05:22:34;17.00;99.90
13245;DHT22;6689;53.400;12.486;2022-08-02T05:25:07;17.00;99.90
13245;DHT22;6689;53.400;12.486;2022-08-02T05:27:36;17.10;99.90
13245;DHT22;6689;53.400;12.486;2022-08-02T05:30:06;17.10;99.90
13245;DHT22;6689;53.400;12.486;2022-08-02T05:32:43;17.10;99.90
13245;DHT22;6689;53.400;12.486;2022-08-02T05:35:16;17.20;99.90
13245;DHT22;6689;53.400;12.486;2022-08-02T05:37:47;17.20;99.90
13245;DHT22;6689;53.400;12.486;2022-08-02T05:40:16;17.30;99.90
13245;DHT22;6689;53.400;12.486;2022-08-02T05:42:46;17.30;99.90
13245;DHT22;6689;53.400;12.486;2022-08-02T05:45:15;17.30;99.90
13245;DHT22;6689;53.400;12.486;2022-08-02T05:47:47;17.40;99.90
13245;DHT22;6689;53.400;12.486;2022-08-02T05:50:16;17.50;99.90
13245;DHT22;6689;53.400;12.486;2022-08-02T05:52:49;17.50;99.90
13245;DHT22;6689;53.400;12.486;2022-08-02T05:55:23;17.60;99.90
13245;DHT22;6689;53.400;12.486;2022-08-02T05:58:02;17.70;99.90
13245;DHT22;6689;53.400;12.486;2022-08-02T06:00:33;17.80;99.90
13245;DHT22;6689;53.400;12.486;2022-08-02T06:03:16;17.90;99.90
13245;DHT22;6689;53.400;12.486;2022-08-02T06:05:52;18.00;99.90
13245;DHT22;6689;53.400;12.486;2022-08-02T06:08:28;18.10;99.90
13245;DHT22;6689;53.400;12.486;2022-08-02T06:11:07;18.20;99.90
13245;DHT22;6689;53.400;12.486;2022-08-02T06:13:45;18.40;99.90
13245;DHT22;6689;53.400;12.486;2022-08-02T06:16:12;18.40;99.90
13245;DHT22;6689;53.400;12.486;2022-08-02T06:18:41;18.50;99.90
13245;DHT22;6689;53.400;12.486;2022-08-02T06:21:12;18.70;99.90
13245;DHT22;6689;53.400;12.486;2022-08-02T06:23:42;18.80;99.90
13245;DHT22;6689;53.400;12.486;2022-08-02T06:26:16;18.80;99.90
13245;DHT22;6689;53.400;12.486;2022-08-02T06:28:47;19.00;99.90
13245;DHT22;6689;53.400;12.486;2022-08-02T06:31:16;19.00;99.90
13245;DHT22;6689;53.400;12.486;2022-08-02T06:33:43;19.10;99.90
13245;DHT22;6689;53.400;12.486;2022-08-02T06:36:18;19.10;99.90
13245;DHT22;6689;53.400;12.486;2022-08-02T06:39:01;19.30;99.90
13245;DHT22;6689;53.400;12.486;2022-08-02T06:41:36;19.40;99.90
13245;DHT22;6689;53.400;12.486;2022-08-02T06:44:05;19.60;99.90
13245;DHT22;6689;53.400;12.486;2022-08-02T06:46:32;19.60;99.90
13245;DHT22;6689;53.400;12.486;2022-08-02T06:49:02;19.80;99.90
13245;DHT22;6689;53.400;12.486;2022-08-02T06:51:32;19.90;73.70
13245;DHT22;6689;53.400;12.486;2022-08-02T06:54:02;20.10;88.70
13245;DHT22;6689;53.400;12.486;2022-08-02T06:56:31;20.10;81.60
13245;DHT22;6689;53.400;12.486;2022-08-02T06:58:58;20.30;16.50
13245;DHT22;6689;53.400;12.486;2022-08-02T07:01:27;20.40;42.10
13245;DHT22;6689;53.400;12.486;2022-08-02T07:03:54;20.40;51.90
13245;DHT22;6689;53.400;12.486;2022-08-02T07:06:22;20.50;28.40
13245;DHT22;6689;53.400;12.486;2022-08-02T07:08:53;20.60;2.20
13245;DHT22;6689;53.400;12.486;2022-08-02T07:11:23;20.70;1.40
13245;DHT22;6689;53.400;12.486;2022-08-02T07:13:52;20.80;1.00
13245;DHT22;6689;53.400;12.486;2022-08-02T07:16:21;20.90;1.00
13245;DHT22;6689;53.400;12.486;2022-08-02T07:18:48;21.00;1.00
13245;DHT22;6689;53.400;12.486;2022-08-02T07:21:19;21.10;1.00
13245;DHT22;6689;53.400;12.486;2022-08-02T07:23:48;21.20;1.00
13245;DHT22;6689;53.400;12.486;2022-08-02T07:26:18;21.30;1.00
13245;DHT22;6689;53.400;12.486;2022-08-02T07:28:48;21.30;1.00
13245;DHT22;6689;53.400;12.486;2022-08-02T07:31:18;21.30;1.00
13245;DHT22;6689;53.400;12.486;2022-08-02T07:33:46;21.20;1.00
13245;DHT22;6689;53.400;12.486;2022-08-02T07:36:13;21.30;1.00
13245;DHT22;6689;53.400;12.486;2022-08-02T07:38:42;21.40;1.00
13245;DHT22;6689;53.400;12.486;2022-08-02T07:41:12;21.60;1.00
13245;DHT22;6689;53.400;12.486;2022-08-02T07:43:39;21.70;1.00
13245;DHT22;6689;53.400;12.486;2022-08-02T07:46:09;21.80;1.00
13245;DHT22;6689;53.400;12.486;2022-08-02T07:48:39;21.90;1.00
13245;DHT22;6689;53.400;12.486;2022-08-02T07:51:08;22.00;1.00
13245;DHT22;6689;53.400;12.486;2022-08-02T07:53:41;22.00;1.00
13245;DHT22;6689;53.400;12.486;2022-08-02T07:56:08;21.90;1.00
13245;DHT22;6689;53.400;12.486;2022-08-02T07:58:41;22.10;1.00
13245;DHT22;6689;53.400;12.486;2022-08-02T08:01:12;22.00;1.00
13245;DHT22;6689;53.400;12.486;2022-08-02T08:03:38;21.90;1.00
13245;DHT22;6689;53.400;12.486;2022-08-02T08:06:08;22.10;1.00
13245;DHT22;6689;53.400;12.486;2022-08-02T08:08:39;22.10;1.00
13245;DHT22;6689;53.400;12.486;2022-08-02T08:11:09;22.10;1.00
13245;DHT22;6689;53.400;12.486;2022-08-02T08:13:37;21.90;1.00
13245;DHT22;6689;53.400;12.486;2022-08-02T08:16:05;21.90;1.00
13245;DHT22;6689;53.400;12.486;2022-08-02T08:18:37;21.80;1.00
13245;DHT22;6689;53.400;12.486;2022-08-02T08:21:04;22.00;1.00
13245;DHT22;6689;53.400;12.486;2022-08-02T08:23:34;22.00;1.00
13245;DHT22;6689;53.400;12.486;2022-08-02T08:26:04;22.20;1.00
13245;DHT22;6689;53.400;12.486;2022-08-02T08:28:33;22.30;1.00
13245;DHT22;6689;53.400;12.486;2022-08-02T08:31:03;22.30;1.00
13245;DHT22;6689;53.400;12.486;2022-08-02T08:33:37;22.40;1.00
13245;DHT22;6689;53.400;12.486;2022-08-02T08:36:05;22.70;1.00
13245;DHT22;6689;53.400;12.486;2022-08-02T08:38:34;22.80;1.00
13245;DHT22;6689;53.400;12.486;2022-08-02T08:41:03;22.80;1.00
13245;DHT22;6689;53.400;12.486;2022-08-02T08:43:32;23.00;1.00
13245;DHT22;6689;53.400;12.486;2022-08-02T08:45:59;23.20;1.00
13245;DHT22;6689;53.400;12.486;2022-08-02T08:48:33;23.30;1.00
13245;DHT22;6689;53.400;12.486;2022-08-02T08:51:10;23.40;1.00
13245;DHT22;6689;53.400;12.486;2022-08-02T08:53:44;23.60;1.00
13245;DHT22;6689;53.400;12.486;2022-08-02T08:56:14;23.70;1.00
13245;DHT22;6689;53.400;12.486;2022-08-02T08:58:44;23.90;1.00
13245;DHT22;6689;53.400;12.486;2022-08-02T09:01:13;24.00;1.00
13245;DHT22;6689;53.400;12.486;2022-08-02T09:03:44;24.10;1.00
13245;DHT22;6689;53.400;12.486;2022-08-02T09:06:17;24.10;1.00
13245;DHT22;6689;53.400;12.486;2022-08-02T09:08:45;24.20;1.00
13245;DHT22;6689;53.400;12.486;2022-08-02T09:11:15;24.20;1.00
13245;DHT22;6689;53.400;12.486;2022-08-02T09:13:50;24.10;1.00
13245;DHT22;6689;53.400;12.486;2022-08-02T09:16:29;24.20;1.00
13245;DHT22;6689;53.400;12.486;2022-08-02T09:19:00;24.30;1.00
13245;DHT22;6689;53.400;12.486;2022-08-02T09:21:36;24.40;1.00
13245;DHT22;6689;53.400;12.486;2022-08-02T09:24:15;24.50;1.00
13245;DHT22;6689;53.400;12.486;2022-08-02T09:26:46;24.60;1.00
13245;DHT22;6689;53.400;12.486;2022-08-02T09:29:14;24.70;1.00
13245;DHT22;6689;53.400;12.486;2022-08-02T09:31:44;24.80;1.00
13245;DHT22;6689;53.400;12.486;2022-08-02T09:34:13;24.90;1.00
13245;DHT22;6689;53.400;12.486;2022-08-02T09:36:45;24.80;99.90
13245;DHT22;6689;53.400;12.486;2022-08-02T09:39:14;24.90;1.00
13245;DHT22;6689;53.400;12.486;2022-08-02T09:41:44;24.90;1.00
13245;DHT22;6689;53.400;12.486;2022-08-02T09:44:14;24.90;99.90
13245;DHT22;6689;53.400;12.486;2022-08-02T09:46:45;25.00;1.00
13245;DHT22;6689;53.400;12.486;2022-08-02T09:49:16;25.00;99.90
13245;DHT22;6689;53.400;12.486;2022-08-02T09:51:54;25.20;99.90
13245;DHT22;6689;53.400;12.486;2022-08-02T09:54:26;25.30;1.00
13245;DHT22;6689;53.400;12.486;2022-08-02T09:56:56;25.40;1.00
13245;DHT22;6689;53.400;12.486;2022-08-02T09:59:30;25.40;99.90
13245;DHT22;6689;53.400;12.486;2022-08-02T10:01:59;25.50;99.90
13245;DHT22;6689;53.400;12.486;2022-08-02T10:04:34;25.60;99.90
13245;DHT22;6689;53.400;12.486;2022-08-02T10:07:03;25.70;99.90
13245;DHT22;6689;53.400;12.486;2022-08-02T10:09:30;25.80;99.90
13245;DHT22;6689;53.400;12.486;2022-08-02T10:11:59;25.80;99.90
13245;DHT22;6689;53.400;12.486;2022-08-02T10:14:29;25.80;99.90
13245;DHT22;6689;53.400;12.486;2022-08-02T10:17:00;25.90;99.90
13245;DHT22;6689;53.400;12.486;2022-08-02T10:19:29;26.00;99.90
13245;DHT22;6689;53.400;12.486;2022-08-02T10:22:00;26.00;99.90
13245;DHT22;6689;53.400;12.486;2022-08-02T10:24:40;26.00;99.90
13245;DHT22;6689;53.400;12.486;2022-08-02T10:27:14;26.10;99.90
13245;DHT22;6689;53.400;12.486;2022-08-02T10:29:46;26.10;99.90
13245;DHT22;6689;53.400;12.486;2022-08-02T10:32:20;26.10;99.90
13245;DHT22;6689;53.400;12.486;2022-08-02T10:34:56;26.20;99.90
13245;DHT22;6689;53.400;12.486;2022-08-02T10:37:30;26.30;1.00
13245;DHT22;6689;53.400;12.486;2022-08-02T10:40:09;26.30;99.90
13245;DHT22;6689;53.400;12.486;2022-08-02T10:42:50;26.40;99.90
13245;DHT22;6689;53.400;12.486;2022-08-02T10:45:19;26.40;99.90
13245;DHT22;6689;53.400;12.486;2022-08-02T10:48:00;26.60;99.90
13245;DHT22;6689;53.400;12.486;2022-08-02T10:50:54;26.70;99.90
13245;DHT22;6689;53.400;12.486;2022-08-02T10:53:26;26.60;99.90
13245;DHT22;6689;53.400;12.486;2022-08-02T10:55:59;26.80;99.90
13245;DHT22;6689;53.400;12.486;2022-08-02T10:58:32;27.00;99.90
13245;DHT22;6689;53.400;12.486;2022-08-02T11:04:00;27.10;99.90
13245;DHT22;6689;53.400;12.486;2022-08-02T11:06:29;27.20;99.90
13245;DHT22;6689;53.400;12.486;2022-08-02T11:09:24;27.30;99.90
13245;DHT22;6689;53.400;12.486;2022-08-02T11:12:03;27.50;99.90
13245;DHT22;6689;53.400;12.486;2022-08-02T11:14:36;27.40;99.90
13245;DHT22;6689;53.400;12.486;2022-08-02T11:17:09;27.50;99.90
13245;DHT22;6689;53.400;12.486;2022-08-02T11:20:14;27.70;99.90
13245;DHT22;6689;53.400;12.486;2022-08-02T11:22:42;27.80;99.90
13245;DHT22;6689;53.400;12.486;2022-08-02T11:25:32;27.70;99.90
13245;DHT22;6689;53.400;12.486;2022-08-02T11:28:10;27.80;99.90
13245;DHT22;6689;53.400;12.486;2022-08-02T11:30:40;27.70;99.90
13245;DHT22;6689;53.400;12.486;2022-08-02T11:33:07;28.00;99.90
13245;DHT22;6689;53.400;12.486;2022-08-02T11:35:37;28.00;99.90
13245;DHT22;6689;53.400;12.486;2022-08-02T11:38:19;28.10;99.90
13245;DHT22;6689;53.400;12.486;2022-08-02T11:40:56;28.30;99.90
13245;DHT22;6689;53.400;12.486;2022-08-02T11:43:29;28.30;99.90
13245;DHT22;6689;53.400;12.486;2022-08-02T11:45:56;28.50;99.90
13245;DHT22;6689;53.400;12.486;2022-08-02T11:48:32;28.50;99.90
13245;DHT22;6689;53.400;12.486;2022-08-02T11:51:07;28.50;99.90
13245;DHT22;6689;53.400;12.486;2022-08-02T11:53:48;28.50;99.90
13245;DHT22;6689;53.400;12.486;2022-08-02T11:56:17;28.60;99.90
13245;DHT22;6689;53.400;12.486;2022-08-02T11:59:03;28.70;99.90
13245;DHT22;6689;53.400;12.486;2022-08-02T12:01:39;29.00;99.90
13245;DHT22;6689;53.400;12.486;2022-08-02T12:04:06;29.10;99.90
13245;DHT22;6689;53.400;12.486;2022-08-02T12:06:34;29.00;99.90
13245;DHT22;6689;53.400;12.486;2022-08-02T12:09:05;29.00;99.90
13245;DHT22;6689;53.400;12.486;2022-08-02T12:11:36;29.10;99.90
13245;DHT22;6689;53.400;12.486;2022-08-02T12:14:05;29.20;99.90
13245;DHT22;6689;53.400;12.486;2022-08-02T12:16:35;29.20;99.90
13245;DHT22;6689;53.400;12.486;2022-08-02T12:19:25;29.00;99.90
13245;DHT22;6689;53.400;12.486;2022-08-02T12:22:16;29.10;99.90
13245;DHT22;6689;53.400;12.486;2022-08-02T12:24:47;29.30;99.90
13245;DHT22;6689;53.400;12.486;2022-08-02T12:27:37;29.10;99.90
13245;DHT22;6689;53.400;12.486;2022-08-02T12:30:12;29.10;99.90
13245;DHT22;6689;53.400;12.486;2022-08-02T12:32:42;28.90;99.90
13245;DHT22;6689;53.400;12.486;2022-08-02T12:35:13;29.00;99.90
13245;DHT22;6689;53.400;12.486;2022-08-02T12:37:44;29.20;99.90
13245;DHT22;6689;53.400;12.486;2022-08-02T12:40:24;29.00;99.90
13245;DHT22;6689;53.400;12.486;2022-08-02T12:43:01;29.20;99.90
13245;DHT22;6689;53.400;12.486;2022-08-02T12:45:44;29.40;99.90
13245;DHT22;6689;53.400;12.486;2022-08-02T12:48:32;29.30;99.90
13245;DHT22;6689;53.400;12.486;2022-08-02T12:51:18;29.30;99.90
13245;DHT22;6689;53.400;12.486;2022-08-02T12:53:48;29.40;99.90
13245;DHT22;6689;53.400;12.486;2022-08-02T12:56:36;29.40;99.90
13245;DHT22;6689;53.400;12.486;2022-08-02T12:59:11;29.50;99.90
13245;DHT22;6689;53.400;12.486;2022-08-02T13:01:45;29.50;99.90
13245;DHT22;6689;53.400;12.486;2022-08-02T13:04:12;29.50;99.90
13245;DHT22;6689;53.400;12.486;2022-08-02T13:06:40;29.50;99.90
13245;DHT22;6689;53.400;12.486;2022-08-02T13:09:16;29.60;99.90
13245;DHT22;6689;53.400;12.486;2022-08-02T13:11:47;29.60;99.90
13245;DHT22;6689;53.400;12.486;2022-08-02T13:14:16;29.60;99.90
13245;DHT22;6689;53.400;12.486;2022-08-02T13:16:45;29.70;99.90
13245;DHT22;6689;53.400;12.486;2022-08-02T13:19:13;29.60;99.90
13245;DHT22;6689;53.400;12.486;2022-08-02T13:21:45;29.40;99.90
13245;DHT22;6689;53.400;12.486;2022-08-02T13:24:13;29.40;99.90
13245;DHT22;6689;53.400;12.486;2022-08-02T13:26:41;29.40;99.90
13245;DHT22;6689;53.400;12.486;2022-08-02T13:29:11;29.20;99.90
13245;DHT22;6689;53.400;12.486;2022-08-02T13:31:40;29.10;99.90
13245;DHT22;6689;53.400;12.486;2022-08-02T13:34:12;29.00;99.90
13245;DHT22;6689;53.400;12.486;2022-08-02T13:36:41;29.00;99.90
13245;DHT22;6689;53.400;12.486;2022-08-02T13:39:08;29.10;99.90
13245;DHT22;6689;53.400;12.486;2022-08-02T13:41:36;29.10;99.90
13245;DHT22;6689;53.400;12.486;2022-08-02T13:44:05;29.00;99.90
13245;DHT22;6689;53.400;12.486;2022-08-02T13:46:32;28.80;99.90
13245;DHT22;6689;53.400;12.486;2022-08-02T13:49:02;28.90;99.90
13245;DHT22;6689;53.400;12.486;2022-08-02T13:51:32;29.00;99.90
13245;DHT22;6689;53.400;12.486;2022-08-02T13:54:02;29.00;99.90
13245;DHT22;6689;53.400;12.486;2022-08-02T13:56:31;29.10;99.90
13245;DHT22;6689;53.400;12.486;2022-08-02T13:58:58;29.00;99.90
13245;DHT22;6689;53.400;12.486;2022-08-02T14:01:26;28.90;99.90
13245;DHT22;6689;53.400;12.486;2022-08-02T14:03:55;28.90;99.90
13245;DHT22;6689;53.400;12.486;2022-08-02T14:06:22;29.00;99.90
13245;DHT22;6689;53.400;12.486;2022-08-02T14:08:53;29.10;99.90
13245;DHT22;6689;53.400;12.486;2022-08-02T14:11:23;29.00;99.90
13245;DHT22;6689;53.400;12.486;2022-08-02T14:13:51;28.90;99.90
13245;DHT22;6689;53.400;12.486;2022-08-02T14:16:18;28.80;99.90
13245;DHT22;6689;53.400;12.486;2022-08-02T14:18:46;28.90;99.90
13245;DHT22;6689;53.400;12.486;2022-08-02T14:21:13;28.80;99.90
13245;DHT22;6689;53.400;12.486;2022-08-02T14:23:43;28.80;99.90
13245;DHT22;6689;53.400;12.486;2022-08-02T14:26:17;28.90;99.90
13245;DHT22;6689;53.400;12.486;2022-08-02T14:28:45;28.70;99.90
13245;DHT22;6689;53.400;12.486;2022-08-02T14:31:16;28.80;99.90
13245;DHT22;6689;53.400;12.486;2022-08-02T14:33:43;28.80;99.90
13245;DHT22;6689;53.400;12.486;2022-08-02T14:36:13;28.80;99.90
13245;DHT22;6689;53.400;12.486;2022-08-02T14:38:44;28.90;99.90
13245;DHT22;6689;53.400;12.486;2022-08-02T14:41:11;28.80;99.90
13245;DHT22;6689;53.400;12.486;2022-08-02T14:43:42;29.00;99.90
13245;DHT22;6689;53.400;12.486;2022-08-02T14:46:26;29.00;99.90
13245;DHT22;6689;53.400;12.486;2022-08-02T14:48:53;29.00;99.90
13245;DHT22;6689;53.400;12.486;2022-08-02T14:51:27;29.10;99.90
13245;DHT22;6689;53.400;12.486;2022-08-02T14:53:54;29.10;99.90
13245;DHT22;6689;53.400;12.486;2022-08-02T14:56:23;28.80;99.90
13245;DHT22;6689;53.400;12.486;2022-08-02T14:58:58;28.90;99.90
13245;DHT22;6689;53.400;12.486;2022-08-02T15:01:27;28.70;99.90
13245;DHT22;6689;53.400;12.486;2022-08-02T15:03:56;28.70;99.90
13245;DHT22;6689;53.400;12.486;2022-08-02T15:06:23;28.50;99.90
13245;DHT22;6689;53.400;12.486;2022-08-02T15:08:53;28.50;99.90
13245;DHT22;6689;53.400;12.486;2022-08-02T15:11:23;28.40;99.90
13245;DHT22;6689;53.400;12.486;2022-08-02T15:13:52;28.30;99.90
13245;DHT22;6689;53.400;12.486;2022-08-02T15:16:23;28.30;99.90
13245;DHT22;6689;53.400;12.486;2022-08-02T15:18:53;28.30;99.90
13245;DHT22;6689;53.400;12.486;2022-08-02T15:21:23;28.30;99.90
13245;DHT22;6689;53.400;12.486;2022-08-02T15:23:53;28.30;99.90
13245;DHT22;6689;53.400;12.486;2022-08-02T15:26:22;28.30;99.90
13245;DHT22;6689;53.400;12.486;2022-08-02T15:28:52;28.30;99.90
13245;DHT22;6689;53.400;12.486;2022-08-02T15:31:22;28.30;99.90
13245;DHT22;6689;53.400;12.486;2022-08-02T15:33:49;28.30;99.90
13245;DHT22;6689;53.400;12.486;2022-08-02T15:36:19;28.30;99.90
13245;DHT22;6689;53.400;12.486;2022-08-02T15:38:47;28.30;99.90
13245;DHT22;6689;53.400;12.486;2022-08-02T15:41:14;28.30;99.90
13245;DHT22;6689;53.400;12.486;2022-08-02T15:43:44;28.20;99.90
13245;DHT22;6689;53.400;12.486;2022-08-02T15:46:14;28.20;99.90
13245;DHT22;6689;53.400;12.486;2022-08-02T15:48:48;28.10;99.90
13245;DHT22;6689;53.400;12.486;2022-08-02T15:51:19;28.00;99.90
13245;DHT22;6689;53.400;12.486;2022-08-02T15:53:47;28.20;1.00
13245;DHT22;6689;53.400;12.486;2022-08-02T15:56:14;28.20;1.00
13245;DHT22;6689;53.400;12.486;2022-08-02T15:58:44;28.20;1.00
13245;DHT22;6689;53.400;12.486;2022-08-02T16:01:15;28.20;99.90
13245;DHT22;6689;53.400;12.486;2022-08-02T16:03:42;28.20;99.90